Fieldsville, Vermont
Current Conditions -  °F | °C
As of 6:54 PM on Sunday 25 Jan 2015 (Local Time) from KVSF Reporting Station
Clear Clear  
Wind Chill: 16°   Ceiling: Unl
Heat Index: 16°   Visibility: 10mi
Dew Point:   Wind: 3mph
Humidity: 49%   Direction: 320°NW
Pressure: 29.91"   Gusts: NA
Location:  43.4897°N, 72.4482°W
Report Text: KVSF 252354Z AUTO 32003KT 10SM CLR M09/M18 A2991 RMK AO2 SLP137 T10891178 11033 21089 51042 TSNO
Loading
Personal Weather Stations






























Interactive Weather Map New forecast layout! Learn more

10-Day Weather Forecast

Advertisements
Track Severe Weather on mobile